sensor_id;sensor_type;location;lat;lon;timestamp;P1;durP1;ratioP1;P2;durP2;ratioP2
76119;SDS011;64852;48.092;-1.640;2023-02-01T00:00:54;26.23;;;24.63;;
76119;SDS011;64852;48.092;-1.640;2023-02-01T00:03:19;26.53;;;24.93;;
76119;SDS011;64852;48.092;-1.640;2023-02-01T00:05:54;25.83;;;24.23;;
76119;SDS011;64852;48.092;-1.640;2023-02-01T00:08:21;25.08;;;23.58;;
76119;SDS011;64852;48.092;-1.640;2023-02-01T00:10:46;25.00;;;23.40;;
76119;SDS011;64852;48.092;-1.640;2023-02-01T00:13:12;25.73;;;24.23;;
76119;SDS011;64852;48.092;-1.640;2023-02-01T00:15:37;26.03;;;24.43;;
76119;SDS011;64852;48.092;-1.640;2023-02-01T00:18:03;26.30;;;24.57;;
76119;SDS011;64852;48.092;-1.640;2023-02-01T00:20:28;24.48;;;22.90;;
76119;SDS011;64852;48.092;-1.640;2023-02-01T00:22:54;24.57;;;22.97;;
76119;SDS011;64852;48.092;-1.640;2023-02-01T00:25:20;23.53;;;22.13;;
76119;SDS011;64852;48.092;-1.640;2023-02-01T00:27:49;23.47;;;22.07;;
76119;SDS011;64852;48.092;-1.640;2023-02-01T00:30:15;23.00;;;21.70;;
76119;SDS011;64852;48.092;-1.640;2023-02-01T00:32:42;24.27;;;22.73;;
76119;SDS011;64852;48.092;-1.640;2023-02-01T00:35:08;24.13;;;22.50;;
76119;SDS011;64852;48.092;-1.640;2023-02-01T00:37:34;24.15;;;22.20;;
76119;SDS011;64852;48.092;-1.640;2023-02-01T00:39:59;24.03;;;22.47;;
76119;SDS011;64852;48.092;-1.640;2023-02-01T00:42:25;24.20;;;22.80;;
76119;SDS011;64852;48.092;-1.640;2023-02-01T00:44:51;23.80;;;22.33;;
76119;SDS011;64852;48.092;-1.640;2023-02-01T00:47:16;26.70;;;24.33;;
76119;SDS011;64852;48.092;-1.640;2023-02-01T00:49:42;26.95;;;24.73;;
76119;SDS011;64852;48.092;-1.640;2023-02-01T00:52:08;23.47;;;22.07;;
76119;SDS011;64852;48.092;-1.640;2023-02-01T00:54:33;23.00;;;21.33;;
76119;SDS011;64852;48.092;-1.640;2023-02-01T00:57:00;22.77;;;21.25;;
76119;SDS011;64852;48.092;-1.640;2023-02-01T00:59:26;22.63;;;21.33;;
76119;SDS011;64852;48.092;-1.640;2023-02-01T01:01:51;23.97;;;22.57;;
76119;SDS011;64852;48.092;-1.640;2023-02-01T01:04:17;24.63;;;22.85;;
76119;SDS011;64852;48.092;-1.640;2023-02-01T01:06:43;24.17;;;22.37;;
76119;SDS011;64852;48.092;-1.640;2023-02-01T01:09:08;22.47;;;21.07;;
76119;SDS011;64852;48.092;-1.640;2023-02-01T01:11:35;23.15;;;21.55;;
76119;SDS011;64852;48.092;-1.640;2023-02-01T01:14:02;22.85;;;21.40;;
76119;SDS011;64852;48.092;-1.640;2023-02-01T01:16:29;24.10;;;22.38;;
76119;SDS011;64852;48.092;-1.640;2023-02-01T01:18:56;22.77;;;21.48;;
76119;SDS011;64852;48.092;-1.640;2023-02-01T01:21:22;22.75;;;21.38;;
76119;SDS011;64852;48.092;-1.640;2023-02-01T01:23:48;22.42;;;21.00;;
76119;SDS011;64852;48.092;-1.640;2023-02-01T01:26:15;22.77;;;21.47;;
76119;SDS011;64852;48.092;-1.640;2023-02-01T01:28:45;21.45;;;20.25;;
76119;SDS011;64852;48.092;-1.640;2023-02-01T01:31:12;20.50;;;19.20;;
76119;SDS011;64852;48.092;-1.640;2023-02-01T01:33:39;22.95;;;21.45;;
76119;SDS011;64852;48.092;-1.640;2023-02-01T01:36:06;21.02;;;19.73;;
76119;SDS011;64852;48.092;-1.640;2023-02-01T01:38:34;24.40;;;22.48;;
76119;SDS011;64852;48.092;-1.640;2023-02-01T01:41:00;24.80;;;22.50;;
76119;SDS011;64852;48.092;-1.640;2023-02-01T01:43:44;24.48;;;22.65;;
76119;SDS011;64852;48.092;-1.640;2023-02-01T01:46:23;22.27;;;20.98;;
76119;SDS011;64852;48.092;-1.640;2023-02-01T01:48:53;23.42;;;21.98;;
76119;SDS011;64852;48.092;-1.640;2023-02-01T01:51:40;31.52;;;20.88;;
76119;SDS011;64852;48.092;-1.640;2023-02-01T01:54:16;22.45;;;21.15;;
76119;SDS011;64852;48.092;-1.640;2023-02-01T01:56:48;20.60;;;19.35;;
76119;SDS011;64852;48.092;-1.640;2023-02-01T01:59:18;21.85;;;20.17;;
76119;SDS011;64852;48.092;-1.640;2023-02-01T02:01:46;21.35;;;19.75;;
76119;SDS011;64852;48.092;-1.640;2023-02-01T02:04:12;22.77;;;20.80;;
76119;SDS011;64852;48.092;-1.640;2023-02-01T02:09:09;22.80;;;21.00;;
76119;SDS011;64852;48.092;-1.640;2023-02-01T02:11:34;22.65;;;21.35;;
76119;SDS011;64852;48.092;-1.640;2023-02-01T02:14:00;21.25;;;19.95;;
76119;SDS011;64852;48.092;-1.640;2023-02-01T02:16:35;22.40;;;21.10;;
76119;SDS011;64852;48.092;-1.640;2023-02-01T02:35:17;19.67;;;18.42;;
76119;SDS011;64852;48.092;-1.640;2023-02-01T02:43:55;21.65;;;20.33;;
76119;SDS011;64852;48.092;-1.640;2023-02-01T02:46:44;19.40;;;18.20;;
76119;SDS011;64852;48.092;-1.640;2023-02-01T02:49:40;18.70;;;17.60;;
76119;SDS011;64852;48.092;-1.640;2023-02-01T02:52:37;19.73;;;18.63;;
76119;SDS011;64852;48.092;-1.640;2023-02-01T02:55:31;19.58;;;18.48;;
76119;SDS011;64852;48.092;-1.640;2023-02-01T02:58:01;19.40;;;18.00;;
76119;SDS011;64852;48.092;-1.640;2023-02-01T03:00:48;18.30;;;17.30;;
76119;SDS011;64852;48.092;-1.640;2023-02-01T03:03:38;19.30;;;18.20;;
76119;SDS011;64852;48.092;-1.640;2023-02-01T03:06:23;21.63;;;20.23;;
76119;SDS011;64852;48.092;-1.640;2023-02-01T03:08:50;19.98;;;18.67;;
76119;SDS011;64852;48.092;-1.640;2023-02-01T03:11:19;20.40;;;19.20;;
76119;SDS011;64852;48.092;-1.640;2023-02-01T03:21:16;19.52;;;18.33;;
76119;SDS011;64852;48.092;-1.640;2023-02-01T03:24:10;18.55;;;17.42;;
76119;SDS011;64852;48.092;-1.640;2023-02-01T03:26:48;18.88;;;17.58;;
76119;SDS011;64852;48.092;-1.640;2023-02-01T03:29:24;20.30;;;18.35;;
76119;SDS011;64852;48.092;-1.640;2023-02-01T03:31:54;18.58;;;17.48;;
76119;SDS011;64852;48.092;-1.640;2023-02-01T03:34:20;17.77;;;16.73;;
76119;SDS011;64852;48.092;-1.640;2023-02-01T03:42:03;17.38;;;16.38;;
76119;SDS011;64852;48.092;-1.640;2023-02-01T03:44:38;17.00;;;16.02;;
76119;SDS011;64852;48.092;-1.640;2023-02-01T03:47:18;23.00;;;15.98;;
76119;SDS011;64852;48.092;-1.640;2023-02-01T03:49:49;16.90;;;15.80;;
76119;SDS011;64852;48.092;-1.640;2023-02-01T03:52:22;16.85;;;15.82;;
76119;SDS011;64852;48.092;-1.640;2023-02-01T03:54:53;18.67;;;17.17;;
76119;SDS011;64852;48.092;-1.640;2023-02-01T03:57:22;16.50;;;15.55;;
76119;SDS011;64852;48.092;-1.640;2023-02-01T03:59:51;18.10;;;16.80;;
76119;SDS011;64852;48.092;-1.640;2023-02-01T04:02:17;19.23;;;17.95;;
76119;SDS011;64852;48.092;-1.640;2023-02-01T04:04:43;17.20;;;16.30;;
76119;SDS011;64852;48.092;-1.640;2023-02-01T04:07:08;19.33;;;17.58;;
76119;SDS011;64852;48.092;-1.640;2023-02-01T04:09:34;18.70;;;17.60;;
76119;SDS011;64852;48.092;-1.640;2023-02-01T04:12:00;18.80;;;17.67;;
76119;SDS011;64852;48.092;-1.640;2023-02-01T04:14:26;18.60;;;17.45;;
76119;SDS011;64852;48.092;-1.640;2023-02-01T04:16:51;19.27;;;17.67;;
76119;SDS011;64852;48.092;-1.640;2023-02-01T04:19:17;20.50;;;18.43;;
76119;SDS011;64852;48.092;-1.640;2023-02-01T04:21:42;17.00;;;16.10;;
76119;SDS011;64852;48.092;-1.640;2023-02-01T04:24:08;16.93;;;16.03;;
76119;SDS011;64852;48.092;-1.640;2023-02-01T04:26:34;18.13;;;17.07;;
76119;SDS011;64852;48.092;-1.640;2023-02-01T04:28:59;17.00;;;16.10;;
76119;SDS011;64852;48.092;-1.640;2023-02-01T04:31:25;17.50;;;16.50;;
76119;SDS011;64852;48.092;-1.640;2023-02-01T04:36:18;17.08;;;16.10;;
76119;SDS011;64852;48.092;-1.640;2023-02-01T04:38:48;34.97;;;16.48;;
76119;SDS011;64852;48.092;-1.640;2023-02-01T04:41:17;31.35;;;16.33;;
76119;SDS011;64852;48.092;-1.640;2023-02-01T04:43:44;19.73;;;17.88;;
76119;SDS011;64852;48.092;-1.640;2023-02-01T04:46:11;16.85;;;15.95;;
76119;SDS011;64852;48.092;-1.640;2023-02-01T04:48:37;16.80;;;15.60;;
76119;SDS011;64852;48.092;-1.640;2023-02-01T04:51:02;16.23;;;15.30;;
76119;SDS011;64852;48.092;-1.640;2023-02-01T04:53:28;17.52;;;16.52;;
76119;SDS011;64852;48.092;-1.640;2023-02-01T04:55:54;16.85;;;15.85;;
76119;SDS011;64852;48.092;-1.640;2023-02-01T04:58:20;18.40;;;17.30;;
76119;SDS011;64852;48.092;-1.640;2023-02-01T05:00:46;17.33;;;16.38;;
76119;SDS011;64852;48.092;-1.640;2023-02-01T05:03:11;17.93;;;16.63;;
76119;SDS011;64852;48.092;-1.640;2023-02-01T05:05:37;16.43;;;15.53;;
76119;SDS011;64852;48.092;-1.640;2023-02-01T05:08:03;18.02;;;16.77;;
76119;SDS011;64852;48.092;-1.640;2023-02-01T05:10:28;16.10;;;15.20;;
76119;SDS011;64852;48.092;-1.640;2023-02-01T05:12:54;17.48;;;16.48;;
76119;SDS011;64852;48.092;-1.640;2023-02-01T05:15:39;17.60;;;16.60;;
76119;SDS011;64852;48.092;-1.640;2023-02-01T05:18:04;18.38;;;17.27;;
76119;SDS011;64852;48.092;-1.640;2023-02-01T05:20:30;17.13;;;16.03;;
76119;SDS011;64852;48.092;-1.640;2023-02-01T05:22:55;16.03;;;15.13;;
76119;SDS011;64852;48.092;-1.640;2023-02-01T05:25:21;17.77;;;16.07;;
76119;SDS011;64852;48.092;-1.640;2023-02-01T05:27:47;22.03;;;18.93;;
76119;SDS011;64852;48.092;-1.640;2023-02-01T05:30:12;16.63;;;15.43;;
76119;SDS011;64852;48.092;-1.640;2023-02-01T05:32:38;16.10;;;15.20;;
76119;SDS011;64852;48.092;-1.640;2023-02-01T05:35:04;15.67;;;14.87;;
76119;SDS011;64852;48.092;-1.640;2023-02-01T05:37:30;16.92;;;15.90;;
76119;SDS011;64852;48.092;-1.640;2023-02-01T05:39:56;16.20;;;15.30;;
76119;SDS011;64852;48.092;-1.640;2023-02-01T05:42:21;16.00;;;15.10;;
76119;SDS011;64852;48.092;-1.640;2023-02-01T05:44:47;14.97;;;14.17;;
76119;SDS011;64852;48.092;-1.640;2023-02-01T05:47:12;17.47;;;16.37;;
76119;SDS011;64852;48.092;-1.640;2023-02-01T05:49:38;15.50;;;14.63;;
76119;SDS011;64852;48.092;-1.640;2023-02-01T05:52:04;16.13;;;15.23;;
76119;SDS011;64852;48.092;-1.640;2023-02-01T05:54:29;17.03;;;15.70;;
76119;SDS011;64852;48.092;-1.640;2023-02-01T05:56:55;16.58;;;15.68;;
76119;SDS011;64852;48.092;-1.640;2023-02-01T05:59:21;16.07;;;15.17;;
76119;SDS011;64852;48.092;-1.640;2023-02-01T06:01:47;17.35;;;15.80;;
76119;SDS011;64852;48.092;-1.640;2023-02-01T06:04:12;16.88;;;15.80;;
76119;SDS011;64852;48.092;-1.640;2023-02-01T06:06:38;14.73;;;13.87;;
76119;SDS011;64852;48.092;-1.640;2023-02-01T06:09:03;14.60;;;13.80;;
76119;SDS011;64852;48.092;-1.640;2023-02-01T06:11:29;15.90;;;15.00;;
76119;SDS011;64852;48.092;-1.640;2023-02-01T06:13:55;15.93;;;14.93;;
76119;SDS011;64852;48.092;-1.640;2023-02-01T06:16:21;14.73;;;13.93;;
76119;SDS011;64852;48.092;-1.640;2023-02-01T06:18:47;14.65;;;13.45;;
76119;SDS011;64852;48.092;-1.640;2023-02-01T06:21:13;14.55;;;13.75;;
76119;SDS011;64852;48.092;-1.640;2023-02-01T06:23:48;15.02;;;14.23;;
76119;SDS011;64852;48.092;-1.640;2023-02-01T06:26:15;15.57;;;14.55;;
76119;SDS011;64852;48.092;-1.640;2023-02-01T06:28:42;15.65;;;14.85;;
76119;SDS011;64852;48.092;-1.640;2023-02-01T06:31:07;16.30;;;15.27;;
76119;SDS011;64852;48.092;-1.640;2023-02-01T06:33:33;16.73;;;15.80;;
76119;SDS011;64852;48.092;-1.640;2023-02-01T06:36:00;19.40;;;15.85;;
76119;SDS011;64852;48.092;-1.640;2023-02-01T06:38:28;14.98;;;14.18;;
76119;SDS011;64852;48.092;-1.640;2023-02-01T06:40:55;16.75;;;15.77;;
76119;SDS011;64852;48.092;-1.640;2023-02-01T06:43:22;16.05;;;14.95;;
76119;SDS011;64852;48.092;-1.640;2023-02-01T06:45:49;16.80;;;15.70;;
76119;SDS011;64852;48.092;-1.640;2023-02-01T06:50:40;18.67;;;17.45;;
76119;SDS011;64852;48.092;-1.640;2023-02-01T06:53:06;15.67;;;14.87;;
76119;SDS011;64852;48.092;-1.640;2023-02-01T06:55:31;16.83;;;15.13;;
76119;SDS011;64852;48.092;-1.640;2023-02-01T06:57:57;17.20;;;16.20;;
76119;SDS011;64852;48.092;-1.640;2023-02-01T07:00:23;18.17;;;16.93;;
76119;SDS011;64852;48.092;-1.640;2023-02-01T07:02:49;17.10;;;16.20;;
76119;SDS011;64852;48.092;-1.640;2023-02-01T07:05:15;17.95;;;16.50;;
76119;SDS011;64852;48.092;-1.640;2023-02-01T07:07:41;17.95;;;16.95;;
76119;SDS011;64852;48.092;-1.640;2023-02-01T07:10:08;18.42;;;16.65;;
76119;SDS011;64852;48.092;-1.640;2023-02-01T07:14:59;17.00;;;16.00;;
76119;SDS011;64852;48.092;-1.640;2023-02-01T07:17:27;15.27;;;14.32;;
76119;SDS011;64852;48.092;-1.640;2023-02-01T07:19:54;14.25;;;13.45;;
76119;SDS011;64852;48.092;-1.640;2023-02-01T07:22:20;18.83;;;14.35;;
76119;SDS011;64852;48.092;-1.640;2023-02-01T07:24:45;14.40;;;13.60;;
76119;SDS011;64852;48.092;-1.640;2023-02-01T07:27:11;16.63;;;15.53;;
76119;SDS011;64852;48.092;-1.640;2023-02-01T07:29:37;14.60;;;13.68;;
76119;SDS011;64852;48.092;-1.640;2023-02-01T07:32:02;13.60;;;12.83;;
76119;SDS011;64852;48.092;-1.640;2023-02-01T07:34:28;14.48;;;13.68;;
76119;SDS011;64852;48.092;-1.640;2023-02-01T07:36:55;15.30;;;14.50;;
76119;SDS011;64852;48.092;-1.640;2023-02-01T07:39:21;14.93;;;14.10;;
76119;SDS011;64852;48.092;-1.640;2023-02-01T07:41:47;14.10;;;13.30;;
76119;SDS011;64852;48.092;-1.640;2023-02-01T07:44:13;15.30;;;14.07;;
76119;SDS011;64852;48.092;-1.640;2023-02-01T07:46:39;13.38;;;12.57;;
76119;SDS011;64852;48.092;-1.640;2023-02-01T07:49:04;12.77;;;12.07;;
76119;SDS011;64852;48.092;-1.640;2023-02-01T07:51:30;13.00;;;12.30;;
76119;SDS011;64852;48.092;-1.640;2023-02-01T07:53:56;13.03;;;12.33;;
76119;SDS011;64852;48.092;-1.640;2023-02-01T07:56:22;14.00;;;13.20;;
76119;SDS011;64852;48.092;-1.640;2023-02-01T07:58:48;12.98;;;12.27;;
76119;SDS011;64852;48.092;-1.640;2023-02-01T08:01:20;12.88;;;12.07;;
76119;SDS011;64852;48.092;-1.640;2023-02-01T08:03:59;13.40;;;11.95;;
76119;SDS011;64852;48.092;-1.640;2023-02-01T08:08:52;14.63;;;13.55;;
76119;SDS011;64852;48.092;-1.640;2023-02-01T08:11:19;14.48;;;13.65;;
76119;SDS011;64852;48.092;-1.640;2023-02-01T08:13:46;14.50;;;13.48;;
76119;SDS011;64852;48.092;-1.640;2023-02-01T08:16:12;11.35;;;10.75;;
76119;SDS011;64852;48.092;-1.640;2023-02-01T08:18:40;14.27;;;13.18;;
76119;SDS011;64852;48.092;-1.640;2023-02-01T08:21:11;13.00;;;12.30;;
76119;SDS011;64852;48.092;-1.640;2023-02-01T08:23:39;14.10;;;13.13;;
76119;SDS011;64852;48.092;-1.640;2023-02-01T08:26:06;14.68;;;13.80;;
76119;SDS011;64852;48.092;-1.640;2023-02-01T08:28:44;14.35;;;13.20;;
76119;SDS011;64852;48.092;-1.640;2023-02-01T08:31:12;13.63;;;12.77;;
76119;SDS011;64852;48.092;-1.640;2023-02-01T08:33:41;15.05;;;14.15;;
76119;SDS011;64852;48.092;-1.640;2023-02-01T08:36:09;19.05;;;13.48;;
76119;SDS011;64852;48.092;-1.640;2023-02-01T08:38:36;14.57;;;13.48;;
76119;SDS011;64852;48.092;-1.640;2023-02-01T08:41:05;12.63;;;11.93;;
76119;SDS011;64852;48.092;-1.640;2023-02-01T08:43:35;13.15;;;12.00;;
76119;SDS011;64852;48.092;-1.640;2023-02-01T08:46:02;13.10;;;12.13;;
76119;SDS011;64852;48.092;-1.640;2023-02-01T08:48:28;12.82;;;11.93;;
76119;SDS011;64852;48.092;-1.640;2023-02-01T08:50:54;14.48;;;13.52;;
76119;SDS011;64852;48.092;-1.640;2023-02-01T08:53:19;22.70;;;12.97;;
76119;SDS011;64852;48.092;-1.640;2023-02-01T08:55:45;13.80;;;13.00;;
76119;SDS011;64852;48.092;-1.640;2023-02-01T09:00:38;13.45;;;12.52;;
76119;SDS011;64852;48.092;-1.640;2023-02-01T09:03:04;12.45;;;11.77;;
76119;SDS011;64852;48.092;-1.640;2023-02-01T09:05:30;13.30;;;12.60;;
76119;SDS011;64852;48.092;-1.640;2023-02-01T09:07:56;13.20;;;12.40;;
76119;SDS011;64852;48.092;-1.640;2023-02-01T09:10:22;13.57;;;12.73;;
76119;SDS011;64852;48.092;-1.640;2023-02-01T09:12:47;12.13;;;11.52;;
76119;SDS011;64852;48.092;-1.640;2023-02-01T09:15:13;12.20;;;11.50;;
76119;SDS011;64852;48.092;-1.640;2023-02-01T09:17:39;13.70;;;12.60;;
76119;SDS011;64852;48.092;-1.640;2023-02-01T09:20:06;12.50;;;11.80;;
76119;SDS011;64852;48.092;-1.640;2023-02-01T09:22:33;11.30;;;10.70;;
76119;SDS011;64852;48.092;-1.640;2023-02-01T09:24:59;14.50;;;13.43;;
76119;SDS011;64852;48.092;-1.640;2023-02-01T09:27:24;12.10;;;11.40;;
76119;SDS011;64852;48.092;-1.640;2023-02-01T09:29:50;11.85;;;11.25;;
76119;SDS011;64852;48.092;-1.640;2023-02-01T09:32:18;14.77;;;12.63;;
76119;SDS011;64852;48.092;-1.640;2023-02-01T09:34:48;13.35;;;12.45;;
76119;SDS011;64852;48.092;-1.640;2023-02-01T09:37:14;13.82;;;12.93;;
76119;SDS011;64852;48.092;-1.640;2023-02-01T09:39:40;14.20;;;13.40;;
76119;SDS011;64852;48.092;-1.640;2023-02-01T09:43:09;15.07;;;14.20;;
76119;SDS011;64852;48.092;-1.640;2023-02-01T09:48:11;18.45;;;16.15;;
76119;SDS011;64852;48.092;-1.640;2023-02-01T09:50:42;14.35;;;13.52;;
76119;SDS011;64852;48.092;-1.640;2023-02-01T09:53:21;14.60;;;13.70;;
76119;SDS011;64852;48.092;-1.640;2023-02-01T09:56:06;14.27;;;13.10;;
76119;SDS011;64852;48.092;-1.640;2023-02-01T10:01:20;13.30;;;12.50;;
76119;SDS011;64852;48.092;-1.640;2023-02-01T10:03:47;13.82;;;12.88;;
76119;SDS011;64852;48.092;-1.640;2023-02-01T10:11:46;12.32;;;11.63;;
76119;SDS011;64852;48.092;-1.640;2023-02-01T10:22:41;13.23;;;12.32;;
76119;SDS011;64852;48.092;-1.640;2023-02-01T10:27:49;13.27;;;12.48;;
76119;SDS011;64852;48.092;-1.640;2023-02-01T10:32:47;12.30;;;11.50;;
76119;SDS011;64852;48.092;-1.640;2023-02-01T10:35:36;14.55;;;13.60;;
76119;SDS011;64852;48.092;-1.640;2023-02-01T10:38:03;12.20;;;11.52;;
76119;SDS011;64852;48.092;-1.640;2023-02-01T10:40:41;12.93;;;12.07;;
76119;SDS011;64852;48.092;-1.640;2023-02-01T10:43:07;9.73;;;9.02;;
76119;SDS011;64852;48.092;-1.640;2023-02-01T10:45:34;7.95;;;7.55;;
76119;SDS011;64852;48.092;-1.640;2023-02-01T10:48:02;8.18;;;7.78;;
76119;SDS011;64852;48.092;-1.640;2023-02-01T10:58:32;10.43;;;9.55;;
76119;SDS011;64852;48.092;-1.640;2023-02-01T11:01:02;7.70;;;7.22;;
76119;SDS011;64852;48.092;-1.640;2023-02-01T11:03:37;11.52;;;9.05;;
76119;SDS011;64852;48.092;-1.640;2023-02-01T11:08:46;10.10;;;9.13;;
76119;SDS011;64852;48.092;-1.640;2023-02-01T11:11:17;9.15;;;8.32;;
76119;SDS011;64852;48.092;-1.640;2023-02-01T11:13:43;8.85;;;8.38;;
76119;SDS011;64852;48.092;-1.640;2023-02-01T11:16:13;9.15;;;8.60;;
76119;SDS011;64852;48.092;-1.640;2023-02-01T11:18:40;8.85;;;8.18;;
76119;SDS011;64852;48.092;-1.640;2023-02-01T11:21:06;8.65;;;7.90;;
76119;SDS011;64852;48.092;-1.640;2023-02-01T11:23:35;8.00;;;7.60;;
76119;SDS011;64852;48.092;-1.640;2023-02-01T11:26:10;8.45;;;7.95;;
76119;SDS011;64852;48.092;-1.640;2023-02-01T11:28:37;7.50;;;7.10;;
76119;SDS011;64852;48.092;-1.640;2023-02-01T11:31:08;9.63;;;8.88;;
76119;SDS011;64852;48.092;-1.640;2023-02-01T11:33:37;8.48;;;7.88;;
76119;SDS011;64852;48.092;-1.640;2023-02-01T11:36:14;10.30;;;9.38;;
76119;SDS011;64852;48.092;-1.640;2023-02-01T11:38:46;8.48;;;7.78;;
76119;SDS011;64852;48.092;-1.640;2023-02-01T11:41:42;6.60;;;6.28;;
76119;SDS011;64852;48.092;-1.640;2023-02-01T11:46:55;8.75;;;8.25;;
76119;SDS011;64852;48.092;-1.640;2023-02-01T11:49:33;11.80;;;9.65;;
76119;SDS011;64852;48.092;-1.640;2023-02-01T11:52:05;8.98;;;8.38;;
76119;SDS011;64852;48.092;-1.640;2023-02-01T12:05:55;8.73;;;8.23;;
76119;SDS011;64852;48.092;-1.640;2023-02-01T12:08:47;9.40;;;8.30;;
76119;SDS011;64852;48.092;-1.640;2023-02-01T12:11:37;12.77;;;9.63;;
76119;SDS011;64852;48.092;-1.640;2023-02-01T12:28:00;15.70;;;8.27;;
76119;SDS011;64852;48.092;-1.640;2023-02-01T12:33:43;8.07;;;7.68;;
76119;SDS011;64852;48.092;-1.640;2023-02-01T12:44:50;8.23;;;7.68;;
76119;SDS011;64852;48.092;-1.640;2023-02-01T12:47:23;8.07;;;7.40;;
76119;SDS011;64852;48.092;-1.640;2023-02-01T12:50:02;6.82;;;6.45;;
76119;SDS011;64852;48.092;-1.640;2023-02-01T12:52:47;10.38;;;8.93;;
76119;SDS011;64852;48.092;-1.640;2023-02-01T12:57:56;6.53;;;6.13;;
76119;SDS011;64852;48.092;-1.640;2023-02-01T13:01:06;6.90;;;6.50;;
76119;SDS011;64852;48.092;-1.640;2023-02-01T13:06:10;9.18;;;8.52;;
76119;SDS011;64852;48.092;-1.640;2023-02-01T13:08:43;7.95;;;7.35;;
76119;SDS011;64852;48.092;-1.640;2023-02-01T13:11:31;6.22;;;5.88;;
76119;SDS011;64852;48.092;-1.640;2023-02-01T13:14:46;13.68;;;6.30;;
76119;SDS011;64852;48.092;-1.640;2023-02-01T13:17:11;6.65;;;6.25;;
76119;SDS011;64852;48.092;-1.640;2023-02-01T13:19:44;6.85;;;6.43;;
76119;SDS011;64852;48.092;-1.640;2023-02-01T13:22:19;6.78;;;6.28;;
76119;SDS011;64852;48.092;-1.640;2023-02-01T13:25:02;6.05;;;5.75;;
76119;SDS011;64852;48.092;-1.640;2023-02-01T13:27:35;34.08;;;6.90;;
76119;SDS011;64852;48.092;-1.640;2023-02-01T13:43:36;6.70;;;6.20;;
76119;SDS011;64852;48.092;-1.640;2023-02-01T13:46:07;7.50;;;7.00;;
76119;SDS011;64852;48.092;-1.640;2023-02-01T13:48:39;7.18;;;6.78;;
76119;SDS011;64852;48.092;-1.640;2023-02-01T13:51:12;5.68;;;5.38;;
76119;SDS011;64852;48.092;-1.640;2023-02-01T13:53:43;11.60;;;7.70;;
76119;SDS011;64852;48.092;-1.640;2023-02-01T13:56:12;13.10;;;6.35;;
76119;SDS011;64852;48.092;-1.640;2023-02-01T13:58:43;6.80;;;6.30;;
76119;SDS011;64852;48.092;-1.640;2023-02-01T14:03:48;6.82;;;6.43;;
76119;SDS011;64852;48.092;-1.640;2023-02-01T14:11:44;6.53;;;6.03;;
76119;SDS011;64852;48.092;-1.640;2023-02-01T14:14:37;7.45;;;7.00;;
76119;SDS011;64852;48.092;-1.640;2023-02-01T14:21:56;6.47;;;6.15;;
76119;SDS011;64852;48.092;-1.640;2023-02-01T14:24:27;6.32;;;6.03;;
76119;SDS011;64852;48.092;-1.640;2023-02-01T14:29:38;6.75;;;6.35;;
76119;SDS011;64852;48.092;-1.640;2023-02-01T14:44:45;9.13;;;7.60;;
76119;SDS011;64852;48.092;-1.640;2023-02-01T14:52:49;7.80;;;7.38;;
76119;SDS011;64852;48.092;-1.640;2023-02-01T14:55:49;8.45;;;7.90;;
76119;SDS011;64852;48.092;-1.640;2023-02-01T15:00:55;7.72;;;7.22;;
76119;SDS011;64852;48.092;-1.640;2023-02-01T15:03:56;7.75;;;7.07;;
76119;SDS011;64852;48.092;-1.640;2023-02-01T15:08:59;7.82;;;7.15;;
76119;SDS011;64852;48.092;-1.640;2023-02-01T15:11:52;8.57;;;7.90;;
76119;SDS011;64852;48.092;-1.640;2023-02-01T15:14:31;7.13;;;6.68;;
76119;SDS011;64852;48.092;-1.640;2023-02-01T15:16:59;7.22;;;6.82;;
76119;SDS011;64852;48.092;-1.640;2023-02-01T15:19:26;8.60;;;7.85;;
76119;SDS011;64852;48.092;-1.640;2023-02-01T15:21:54;9.70;;;8.82;;
76119;SDS011;64852;48.092;-1.640;2023-02-01T15:24:23;8.57;;;7.88;;
76119;SDS011;64852;48.092;-1.640;2023-02-01T15:26:53;8.40;;;7.75;;
76119;SDS011;64852;48.092;-1.640;2023-02-01T15:29:22;11.95;;;8.90;;
76119;SDS011;64852;48.092;-1.640;2023-02-01T15:31:54;8.02;;;7.47;;
76119;SDS011;64852;48.092;-1.640;2023-02-01T15:34:23;8.15;;;7.55;;
76119;SDS011;64852;48.092;-1.640;2023-02-01T15:36:48;9.00;;;7.40;;
76119;SDS011;64852;48.092;-1.640;2023-02-01T15:42:30;8.65;;;8.05;;
76119;SDS011;64852;48.092;-1.640;2023-02-01T15:44:40;9.05;;;8.45;;
76119;SDS011;64852;48.092;-1.640;2023-02-01T15:47:15;7.72;;;7.25;;
76119;SDS011;64852;48.092;-1.640;2023-02-01T15:49:43;8.32;;;7.82;;
76119;SDS011;64852;48.092;-1.640;2023-02-01T15:52:26;7.22;;;6.80;;
76119;SDS011;64852;48.092;-1.640;2023-02-01T15:55:04;26.77;;;9.98;;
76119;SDS011;64852;48.092;-1.640;2023-02-01T15:57:34;7.63;;;7.05;;
76119;SDS011;64852;48.092;-1.640;2023-02-01T16:00:05;17.40;;;7.47;;
76119;SDS011;64852;48.092;-1.640;2023-02-01T16:02:37;9.98;;;9.00;;
76119;SDS011;64852;48.092;-1.640;2023-02-01T16:05:33;14.15;;;8.60;;
76119;SDS011;64852;48.092;-1.640;2023-02-01T16:08:21;11.60;;;9.13;;
76119;SDS011;64852;48.092;-1.640;2023-02-01T16:10:49;8.73;;;8.07;;
76119;SDS011;64852;48.092;-1.640;2023-02-01T16:13:18;7.32;;;6.93;;
76119;SDS011;64852;48.092;-1.640;2023-02-01T16:15:45;8.57;;;8.02;;
76119;SDS011;64852;48.092;-1.640;2023-02-01T16:18:11;12.23;;;8.38;;
76119;SDS011;64852;48.092;-1.640;2023-02-01T16:20:39;8.68;;;8.07;;
76119;SDS011;64852;48.092;-1.640;2023-02-01T16:23:06;7.85;;;7.28;;
76119;SDS011;64852;48.092;-1.640;2023-02-01T16:25:33;7.75;;;7.35;;
76119;SDS011;64852;48.092;-1.640;2023-02-01T16:27:59;10.48;;;9.50;;
76119;SDS011;64852;48.092;-1.640;2023-02-01T16:30:24;9.00;;;8.40;;
76119;SDS011;64852;48.092;-1.640;2023-02-01T16:32:57;8.43;;;7.85;;
76119;SDS011;64852;48.092;-1.640;2023-02-01T16:35:25;8.40;;;7.78;;
76119;SDS011;64852;48.092;-1.640;2023-02-01T16:37:53;8.35;;;7.85;;
76119;SDS011;64852;48.092;-1.640;2023-02-01T16:40:19;10.07;;;9.20;;
76119;SDS011;64852;48.092;-1.640;2023-02-01T16:42:47;8.25;;;7.65;;
76119;SDS011;64852;48.092;-1.640;2023-02-01T16:45:16;7.30;;;6.80;;
76119;SDS011;64852;48.092;-1.640;2023-02-01T16:47:45;9.30;;;8.52;;
76119;SDS011;64852;48.092;-1.640;2023-02-01T16:50:19;7.35;;;6.85;;
76119;SDS011;64852;48.092;-1.640;2023-02-01T16:52:47;9.05;;;8.35;;
76119;SDS011;64852;48.092;-1.640;2023-02-01T16:55:13;7.88;;;7.38;;
76119;SDS011;64852;48.092;-1.640;2023-02-01T16:57:40;20.65;;;8.90;;
76119;SDS011;64852;48.092;-1.640;2023-02-01T17:02:33;7.18;;;6.78;;
76119;SDS011;64852;48.092;-1.640;2023-02-01T17:04:59;11.17;;;9.13;;
76119;SDS011;64852;48.092;-1.640;2023-02-01T17:07:24;10.53;;;8.47;;
76119;SDS011;64852;48.092;-1.640;2023-02-01T17:09:51;7.85;;;7.45;;
76119;SDS011;64852;48.092;-1.640;2023-02-01T17:12:24;6.82;;;6.43;;
76119;SDS011;64852;48.092;-1.640;2023-02-01T17:14:51;8.55;;;8.10;;
76119;SDS011;64852;48.092;-1.640;2023-02-01T17:17:17;10.45;;;9.60;;
76119;SDS011;64852;48.092;-1.640;2023-02-01T17:19:45;11.38;;;10.52;;
76119;SDS011;64852;48.092;-1.640;2023-02-01T17:22:15;9.77;;;9.25;;
76119;SDS011;64852;48.092;-1.640;2023-02-01T17:24:41;10.50;;;9.80;;
76119;SDS011;64852;48.092;-1.640;2023-02-01T17:27:06;9.43;;;8.93;;
76119;SDS011;64852;48.092;-1.640;2023-02-01T17:29:32;9.90;;;9.40;;
76119;SDS011;64852;48.092;-1.640;2023-02-01T17:31:58;9.20;;;8.70;;
76119;SDS011;64852;48.092;-1.640;2023-02-01T17:34:25;9.90;;;9.38;;
76119;SDS011;64852;48.092;-1.640;2023-02-01T17:36:51;9.25;;;8.75;;
76119;SDS011;64852;48.092;-1.640;2023-02-01T17:39:17;43.63;;;11.75;;